createdAt,value
2019-06-01T00:01:28.238Z,21.20
2019-06-01T00:04:00.258Z,21.20
2019-06-01T00:06:33.477Z,21.20
2019-06-01T00:09:05.328Z,21.10
2019-06-01T00:11:36.408Z,21.10
2019-06-01T00:14:09.175Z,21.00
2019-06-01T00:16:40.221Z,21.20
2019-06-01T00:19:11.637Z,21.20
2019-06-01T00:21:43.261Z,21.10
2019-06-01T00:24:14.895Z,21.00
2019-06-01T00:26:45.924Z,21.00
2019-06-01T00:29:17.602Z,20.80
2019-06-01T00:31:49.812Z,20.80
2019-06-01T00:34:21.888Z,20.90
2019-06-01T00:36:52.798Z,20.80
2019-06-01T00:39:23.646Z,20.70
2019-06-01T00:41:54.840Z,20.70
2019-06-01T00:44:25.673Z,20.70
2019-06-01T00:46:56.801Z,20.70
2019-06-01T00:49:28.239Z,20.70
2019-06-01T00:51:59.060Z,20.70
2019-06-01T00:54:33.698Z,20.70
2019-06-01T00:57:04.807Z,20.70
2019-06-01T00:59:35.676Z,20.70
2019-06-01T01:02:06.893Z,20.60
2019-06-01T01:04:37.931Z,20.70
2019-06-01T01:07:09.065Z,20.70
2019-06-01T01:09:40.014Z,20.60
2019-06-01T01:12:11.199Z,20.60
2019-06-01T01:14:42.132Z,20.60
2019-06-01T01:17:12.982Z,20.50
2019-06-01T01:19:44.115Z,20.50
2019-06-01T01:22:15.138Z,20.50
2019-06-01T01:24:48.303Z,20.40
2019-06-01T01:27:19.315Z,20.50
2019-06-01T01:29:50.955Z,20.50
2019-06-01T01:32:22.196Z,20.50
2019-06-01T01:34:53.747Z,20.50
2019-06-01T01:37:24.651Z,20.40
2019-06-01T01:39:56.285Z,20.40
2019-06-01T01:42:27.571Z,20.30
2019-06-01T01:44:58.670Z,20.40
2019-06-01T01:47:30.822Z,20.40
2019-06-01T01:50:03.066Z,20.50
2019-06-01T01:52:34.896Z,20.50
2019-06-01T01:55:06.801Z,20.50
2019-06-01T01:57:44.316Z,20.40
2019-06-01T02:00:16.010Z,20.40
2019-06-01T02:02:47.169Z,20.30
2019-06-01T02:05:18.456Z,20.20
2019-06-01T02:07:50.861Z,20.20
2019-06-01T02:10:21.904Z,20.20
2019-06-01T02:12:53.449Z,20.20
2019-06-01T02:15:24.855Z,20.20
2019-06-01T02:17:56.040Z,20.20
2019-06-01T02:20:28.507Z,20.20
2019-06-01T02:23:00.901Z,20.20
2019-06-01T02:25:32.555Z,20.20
2019-06-01T02:28:03.567Z,20.20
2019-06-01T02:30:34.534Z,20.30
2019-06-01T02:33:06.584Z,20.20
2019-06-01T02:35:37.788Z,20.20
2019-06-01T02:38:08.765Z,20.30
2019-06-01T02:40:39.841Z,20.20
2019-06-01T02:43:10.747Z,20.20
2019-06-01T02:45:41.811Z,20.20
2019-06-01T02:48:12.885Z,20.20
2019-06-01T02:50:45.420Z,20.20
2019-06-01T02:53:16.235Z,20.20
2019-06-01T02:55:47.183Z,20.20
2019-06-01T02:58:18.423Z,20.20
2019-06-01T03:01:25.620Z,20.20
2019-06-01T03:03:57.761Z,20.20
2019-06-01T03:06:32.632Z,20.20
2019-06-01T03:09:06.739Z,20.10
2019-06-01T03:11:40.334Z,20.10
2019-06-01T03:14:13.633Z,20.00
2019-06-01T03:16:44.861Z,19.90
2019-06-01T03:19:19.440Z,20.00
2019-06-01T03:21:52.169Z,20.00
2019-06-01T03:24:26.817Z,20.00
2019-06-01T03:26:59.740Z,20.00
2019-06-01T03:29:36.531Z,20.00
2019-06-01T03:32:29.756Z,19.90
2019-06-01T03:34:44.199Z,19.90
2019-06-01T03:37:15.530Z,19.80
2019-06-01T03:39:47.630Z,19.80
2019-06-01T03:42:19.046Z,19.80
2019-06-01T03:44:50.285Z,19.70
2019-06-01T03:47:21.718Z,19.80
2019-06-01T03:49:52.742Z,19.60
2019-06-01T03:52:23.709Z,19.60
2019-06-01T03:54:54.888Z,19.70
2019-06-01T03:57:26.113Z,19.60
2019-06-01T03:59:56.888Z,19.50
2019-06-01T04:02:33.139Z,19.60
2019-06-01T04:05:01.184Z,19.60
2019-06-01T04:07:32.744Z,19.60
2019-06-01T04:10:08.214Z,19.70
2019-06-01T04:12:39.540Z,19.70
2019-06-01T04:15:14.475Z,19.70
2019-06-01T04:17:43.932Z,19.70
2019-06-01T04:20:15.353Z,19.60
2019-06-01T04:22:46.478Z,19.60
2019-06-01T04:25:17.317Z,19.50
2019-06-01T04:27:48.667Z,19.50
2019-06-01T04:30:24.725Z,19.50
2019-06-01T04:32:56.064Z,19.60
2019-06-01T04:35:28.626Z,19.60
2019-06-01T04:38:00.170Z,19.60
2019-06-01T04:40:31.826Z,19.60
2019-06-01T04:43:03.742Z,19.60
2019-06-01T04:45:35.075Z,19.60
2019-06-01T04:48:06.452Z,19.60
2019-06-01T04:50:37.857Z,19.60
2019-06-01T04:53:09.027Z,19.60
2019-06-01T04:55:40.073Z,19.60
2019-06-01T04:58:11.168Z,19.60
2019-06-01T05:00:43.055Z,19.60
2019-06-01T05:03:15.222Z,19.60
2019-06-01T05:05:47.706Z,19.60
2019-06-01T05:08:18.605Z,19.60
2019-06-01T05:10:49.815Z,19.50
2019-06-01T05:13:20.982Z,19.50
2019-06-01T05:15:52.309Z,19.60
2019-06-01T05:18:23.628Z,19.70
2019-06-01T05:20:54.709Z,19.80
2019-06-01T05:23:25.649Z,19.80
2019-06-01T05:25:57.009Z,19.80
2019-06-01T05:28:28.318Z,19.90
2019-06-01T05:30:59.499Z,19.90
2019-06-01T05:33:37.407Z,19.90
2019-06-01T05:36:03.403Z,19.90
2019-06-01T05:38:35.725Z,20.00
2019-06-01T05:41:08.422Z,20.00
2019-06-01T05:43:40.427Z,20.00
2019-06-01T05:46:11.850Z,20.00
2019-06-01T05:48:43.257Z,20.10
2019-06-01T05:51:16.815Z,20.10
2019-06-01T05:53:47.290Z,20.20
2019-06-01T05:56:18.957Z,20.30
2019-06-01T05:58:50.444Z,20.40
2019-06-01T06:01:22.693Z,20.40
2019-06-01T06:03:53.793Z,20.30
2019-06-01T06:06:24.653Z,20.40
2019-06-01T06:08:55.820Z,20.40
2019-06-01T06:11:26.610Z,20.20
2019-06-01T06:13:58.813Z,20.20
2019-06-01T06:16:29.848Z,20.30
2019-06-01T06:19:01.389Z,20.40
2019-06-01T06:21:32.377Z,20.40
2019-06-01T06:24:03.585Z,20.30
2019-06-01T06:26:34.449Z,20.50
2019-06-01T06:29:06.072Z,20.40
2019-06-01T06:31:36.912Z,20.50
2019-06-01T06:34:08.132Z,20.40
2019-06-01T06:36:39.025Z,20.60
2019-06-01T06:39:10.202Z,20.70
2019-06-01T06:41:41.388Z,20.80
2019-06-01T06:44:12.403Z,20.90
2019-06-01T06:46:43.340Z,20.90
2019-06-01T06:49:15.038Z,21.00
2019-06-01T06:51:46.032Z,21.00
2019-06-01T06:54:17.710Z,21.10
2019-06-01T06:56:48.625Z,21.20
2019-06-01T06:59:22.975Z,21.20
2019-06-01T07:01:53.939Z,21.30
2019-06-01T07:04:25.273Z,21.40
2019-06-01T07:06:56.703Z,21.50
2019-06-01T07:09:28.312Z,21.40
2019-06-01T07:11:59.510Z,21.60
2019-06-01T07:14:31.668Z,21.70
2019-06-01T07:17:03.096Z,21.70
2019-06-01T07:19:34.107Z,21.80
2019-06-01T07:22:05.017Z,21.90
2019-06-01T07:24:38.013Z,22.00
2019-06-01T07:27:09.103Z,22.00
2019-06-01T07:29:40.131Z,21.90
2019-06-01T07:32:11.474Z,22.10
2019-06-01T07:34:42.978Z,22.30
2019-06-01T07:37:14.217Z,22.40
2019-06-01T07:39:45.488Z,22.50
2019-06-01T07:42:16.487Z,22.60
2019-06-01T07:44:47.881Z,22.60
2019-06-01T07:47:18.633Z,22.60
2019-06-01T07:49:49.927Z,22.60
2019-06-01T07:52:22.251Z,22.70
2019-06-01T07:54:53.726Z,22.90
2019-06-01T07:57:25.512Z,23.00
2019-06-01T07:59:57.333Z,23.00
2019-06-01T08:02:30.638Z,23.20
2019-06-01T08:05:01.673Z,23.30
2019-06-01T08:07:32.977Z,23.40
2019-06-01T08:10:04.359Z,23.50
2019-06-01T08:12:35.518Z,23.40
2019-06-01T08:15:08.205Z,23.40
2019-06-01T08:17:39.347Z,23.60
2019-06-01T08:20:11.620Z,23.60
2019-06-01T08:22:43.159Z,23.60
2019-06-01T08:25:14.524Z,23.40
2019-06-01T08:27:46.515Z,23.70
2019-06-01T08:30:17.977Z,23.90
2019-06-01T08:32:49.033Z,24.10
2019-06-01T08:35:21.071Z,24.20
2019-06-01T08:37:52.308Z,24.00
2019-06-01T08:40:23.550Z,23.60
2019-06-01T08:42:54.565Z,24.20
2019-06-01T08:45:25.676Z,24.20
2019-06-01T08:47:56.519Z,24.50
2019-06-01T08:50:27.841Z,24.50
2019-06-01T08:52:59.139Z,24.50
2019-06-01T08:55:30.318Z,24.50
2019-06-01T08:58:01.215Z,24.70
2019-06-01T09:00:32.670Z,24.80
2019-06-01T09:03:03.668Z,25.00
2019-06-01T09:05:35.199Z,25.10
2019-06-01T09:08:07.476Z,25.00
2019-06-01T09:10:38.492Z,25.00
2019-06-01T09:13:09.678Z,24.80
2019-06-01T09:15:40.833Z,25.00
2019-06-01T09:18:12.008Z,25.10
2019-06-01T09:20:43.000Z,25.30
2019-06-01T09:23:13.986Z,25.30
2019-06-01T09:25:44.968Z,25.30
2019-06-01T09:28:15.892Z,25.30
2019-06-01T09:30:48.409Z,25.30
2019-06-01T09:33:19.402Z,25.50
2019-06-01T09:35:55.850Z,25.60
2019-06-01T09:38:23.044Z,25.70
2019-06-01T09:40:54.492Z,25.70
2019-06-01T09:43:26.511Z,25.60
2019-06-01T09:45:58.181Z,25.70
2019-06-01T09:48:29.448Z,25.80
2019-06-01T09:51:00.808Z,25.50
2019-06-01T09:53:32.547Z,25.80
2019-06-01T09:56:05.106Z,25.70
2019-06-01T09:58:36.869Z,25.50
2019-06-01T10:01:11.810Z,25.60
2019-06-01T10:03:43.165Z,25.80
2019-06-01T10:06:14.464Z,25.60
2019-06-01T10:08:45.507Z,25.60
2019-06-01T10:11:16.719Z,25.80
2019-06-01T10:13:47.712Z,26.00
2019-06-01T10:16:19.970Z,26.10
2019-06-01T10:18:50.959Z,26.20
2019-06-01T10:21:22.362Z,26.10
2019-06-01T10:23:54.183Z,26.10
2019-06-01T10:26:25.477Z,26.20
2019-06-01T10:28:56.350Z,26.30
2019-06-01T10:31:27.461Z,26.20
2019-06-01T10:33:58.373Z,26.10
2019-06-01T10:36:29.704Z,26.20
2019-06-01T10:39:04.093Z,26.20
2019-06-01T10:41:35.369Z,26.20
2019-06-01T10:44:06.312Z,26.10
2019-06-01T10:46:38.021Z,26.00
2019-06-01T10:49:09.073Z,26.00
2019-06-01T10:51:40.469Z,26.10
2019-06-01T10:54:12.596Z,26.00
2019-06-01T10:56:43.565Z,26.00
2019-06-01T10:59:15.025Z,26.00
2019-06-01T11:01:48.317Z,26.00
2019-06-01T11:04:19.476Z,26.10
2019-06-01T11:06:50.739Z,26.20
2019-06-01T11:09:21.760Z,26.40
2019-06-01T11:11:52.741Z,26.20
2019-06-01T11:14:23.695Z,26.40
2019-06-01T11:16:56.536Z,26.40
2019-06-01T11:19:27.229Z,26.30
2019-06-01T11:21:58.515Z,26.30
2019-06-01T11:24:29.764Z,26.30
2019-06-01T11:27:01.017Z,26.40
2019-06-01T11:29:33.790Z,26.30
2019-06-01T11:32:04.810Z,26.40
2019-06-01T11:34:36.452Z,26.60
2019-06-01T11:37:07.779Z,26.60
2019-06-01T11:39:38.877Z,26.70
2019-06-01T11:42:10.203Z,26.80
2019-06-01T11:44:41.154Z,26.60
2019-06-01T11:47:12.097Z,26.60
2019-06-01T11:49:43.389Z,26.60
2019-06-01T11:52:14.492Z,26.70
2019-06-01T11:54:45.743Z,26.60
2019-06-01T11:57:16.714Z,26.60
2019-06-01T11:59:48.169Z,26.40
2019-06-01T12:02:19.402Z,26.60
2019-06-01T12:04:50.176Z,26.70
2019-06-01T12:07:21.498Z,26.70
2019-06-01T12:09:52.464Z,26.60
2019-06-01T12:12:23.616Z,26.60
2019-06-01T12:14:54.609Z,26.50
2019-06-01T12:17:25.822Z,26.40
2019-06-01T12:19:57.244Z,26.50
2019-06-01T12:22:28.193Z,26.50
2019-06-01T12:25:01.340Z,26.50
2019-06-01T12:27:32.397Z,26.40
2019-06-01T12:30:03.623Z,26.50
2019-06-01T12:32:34.677Z,26.50
2019-06-01T12:35:07.217Z,26.60
2019-06-01T12:37:57.000Z,26.60
2019-06-01T12:40:11.491Z,26.80
2019-06-01T12:42:44.080Z,26.80
2019-06-01T12:45:22.713Z,26.80
2019-06-01T12:47:55.631Z,26.70
2019-06-01T12:50:24.727Z,26.80
2019-06-01T12:52:55.973Z,27.00
2019-06-01T12:55:27.533Z,27.10
2019-06-01T12:57:58.668Z,27.20
2019-06-01T13:00:29.585Z,26.80
2019-06-01T13:03:07.444Z,27.00
2019-06-01T13:05:34.451Z,26.80
2019-06-01T13:08:05.542Z,26.80
2019-06-01T13:10:50.236Z,27.20
2019-06-01T13:13:21.456Z,27.20
2019-06-01T13:15:52.524Z,27.20
2019-06-01T13:18:23.713Z,27.20
2019-06-01T13:20:54.650Z,27.20
2019-06-01T13:23:25.649Z,27.20
2019-06-01T13:25:56.854Z,27.50
2019-06-01T13:28:38.082Z,27.50
2019-06-01T13:31:01.675Z,28.10
2019-06-01T13:33:32.670Z,28.90
2019-06-01T13:36:23.489Z,28.90
2019-06-01T13:38:54.518Z,29.00
2019-06-01T13:41:26.315Z,29.10
2019-06-01T13:43:57.732Z,29.00
2019-06-01T13:46:28.618Z,28.80
2019-06-01T13:49:00.789Z,29.20
2019-06-01T13:51:32.192Z,29.90
2019-06-01T13:54:03.578Z,29.80
2019-06-01T13:56:34.568Z,29.50
2019-06-01T13:59:06.007Z,30.00
2019-06-01T14:01:37.261Z,30.10
2019-06-01T14:04:08.532Z,29.50
2019-06-01T14:06:39.565Z,29.70
2019-06-01T14:09:12.640Z,30.00
2019-06-01T14:11:43.526Z,29.90
2019-06-01T14:14:14.938Z,30.00
2019-06-01T14:16:47.393Z,30.40
2019-06-01T14:19:18.743Z,30.50
2019-06-01T14:21:50.412Z,30.10
2019-06-01T14:24:23.025Z,30.50
2019-06-01T14:26:54.412Z,30.30
2019-06-01T14:29:25.913Z,30.40
2019-06-01T14:31:57.691Z,30.60
2019-06-01T14:34:28.810Z,30.20
2019-06-01T14:36:59.942Z,30.30
2019-06-01T14:39:31.386Z,30.00
2019-06-01T14:42:02.334Z,30.70
2019-06-01T14:44:33.501Z,30.40
2019-06-01T14:47:06.125Z,30.50
2019-06-01T14:49:37.760Z,30.30
2019-06-01T14:52:08.764Z,30.90
2019-06-01T14:54:40.042Z,31.00
2019-06-01T14:57:11.419Z,30.10
2019-06-01T14:59:42.652Z,29.10
2019-06-01T15:02:13.796Z,27.90
2019-06-01T15:04:45.033Z,27.60
2019-06-01T15:11:15.685Z,27.10
2019-06-01T15:13:48.191Z,26.70
2019-06-01T15:16:19.503Z,26.80
2019-06-01T15:18:51.442Z,26.80
2019-06-01T15:21:22.763Z,26.60
2019-06-01T15:23:54.049Z,26.80
2019-06-01T15:26:25.075Z,26.60
2019-06-01T15:28:57.065Z,26.40
2019-06-01T15:31:28.165Z,26.20
2019-06-01T15:33:59.474Z,26.30
2019-06-01T15:36:31.613Z,26.40
2019-06-01T15:39:04.361Z,26.40
2019-06-01T15:41:35.695Z,26.40
2019-06-01T15:44:06.743Z,26.40
2019-06-01T15:46:38.980Z,26.40
2019-06-01T15:49:10.058Z,26.40
2019-06-01T15:51:41.537Z,26.40
2019-06-01T15:54:12.455Z,26.30
2019-06-01T15:56:44.074Z,26.20
2019-06-01T15:59:15.011Z,26.10
2019-06-01T16:01:46.521Z,26.00
2019-06-01T16:04:18.313Z,25.90
2019-06-01T16:06:53.255Z,25.80
2019-06-01T16:09:41.313Z,25.90
2019-06-01T16:11:57.490Z,25.70
2019-06-01T16:14:28.634Z,25.70
2019-06-01T16:17:00.870Z,25.70
2019-06-01T16:19:33.756Z,25.80
2019-06-01T16:22:05.150Z,25.90
2019-06-01T16:24:36.367Z,25.70
2019-06-01T16:27:07.587Z,25.50
2019-06-01T16:29:39.505Z,25.50
2019-06-01T16:32:11.046Z,25.60
2019-06-01T16:34:42.316Z,25.50
2019-06-01T16:37:14.676Z,25.50
2019-06-01T16:39:58.860Z,25.50
2019-06-01T16:42:19.165Z,25.30
2019-06-01T16:44:50.663Z,25.10
2019-06-01T16:47:22.105Z,25.20
2019-06-01T16:49:53.144Z,25.00
2019-06-01T16:52:24.140Z,25.00
2019-06-01T16:54:56.185Z,25.10
2019-06-01T16:57:27.453Z,25.10
2019-06-01T17:00:00.319Z,25.00
2019-06-01T17:02:32.442Z,25.10
2019-06-01T17:05:04.889Z,25.10
2019-06-01T17:07:36.965Z,25.10
2019-06-01T17:10:24.962Z,25.10
2019-06-01T17:12:43.932Z,25.10
2019-06-01T17:15:16.616Z,24.90
2019-06-01T17:17:48.357Z,25.00
2019-06-01T17:20:53.543Z,24.90
2019-06-01T17:23:32.108Z,24.90
2019-06-01T17:26:01.954Z,24.80
2019-06-01T17:28:33.130Z,24.60
2019-06-01T17:31:04.397Z,24.70
2019-06-01T17:33:35.826Z,24.70
2019-06-01T17:36:07.408Z,24.80
2019-06-01T17:38:39.833Z,24.80
2019-06-01T17:41:12.562Z,24.80
2019-06-01T17:43:44.244Z,24.70
2019-06-01T17:46:15.786Z,24.50
2019-06-01T17:48:47.193Z,24.50
2019-06-01T17:51:18.310Z,24.50
2019-06-01T17:53:53.127Z,24.50
2019-06-01T17:56:22.208Z,24.50
2019-06-01T17:59:01.215Z,24.50
2019-06-01T18:01:32.321Z,24.60
2019-06-01T18:04:07.859Z,24.50
2019-06-01T18:06:39.322Z,24.40
2019-06-01T18:09:10.706Z,24.30
2019-06-01T18:11:41.619Z,24.10
2019-06-01T18:14:13.431Z,24.10
2019-06-01T18:16:44.398Z,24.10
2019-06-01T18:19:15.566Z,24.10
2019-06-01T18:21:47.835Z,24.00
2019-06-01T18:24:19.018Z,24.00
2019-06-01T18:26:49.982Z,23.90
2019-06-01T18:29:21.140Z,23.90
2019-06-01T18:31:52.460Z,23.80
2019-06-01T18:34:23.821Z,23.80
2019-06-01T18:36:55.012Z,23.80
2019-06-01T18:39:26.205Z,23.60
2019-06-01T18:41:57.108Z,23.60
2019-06-01T18:44:28.607Z,23.50
2019-06-01T18:46:59.727Z,23.60
2019-06-01T18:49:31.241Z,23.50
2019-06-01T18:52:02.536Z,23.50
2019-06-01T18:54:34.028Z,23.40
2019-06-01T18:57:10.879Z,23.40
2019-06-01T18:59:38.396Z,23.30
2019-06-01T19:02:10.480Z,23.30
2019-06-01T19:04:41.919Z,23.20
2019-06-01T19:07:13.629Z,23.10
2019-06-01T19:09:48.673Z,23.20
2019-06-01T19:12:19.744Z,23.10
2019-06-01T19:14:51.597Z,23.00
2019-06-01T19:17:22.771Z,23.00
2019-06-01T19:19:54.163Z,23.00
2019-06-01T19:22:25.621Z,23.00
2019-06-01T19:24:56.949Z,22.90
2019-06-01T19:27:30.490Z,23.00
2019-06-01T19:30:01.972Z,22.90
2019-06-01T19:32:33.191Z,22.90
2019-06-01T19:35:04.975Z,22.90
2019-06-01T19:37:38.878Z,22.90
2019-06-01T19:40:11.377Z,22.80
2019-06-01T19:42:42.698Z,22.80
2019-06-01T19:45:27.106Z,22.80
2019-06-01T19:47:47.141Z,22.80
2019-06-01T19:50:20.179Z,22.80
2019-06-01T19:52:51.574Z,22.90
2019-06-01T19:55:22.616Z,22.80
2019-06-01T19:57:53.914Z,22.80
2019-06-01T20:00:25.600Z,22.70
2019-06-01T20:02:57.369Z,22.70
2019-06-01T20:05:28.860Z,22.80
2019-06-01T20:08:00.133Z,22.70
2019-06-01T20:10:31.622Z,22.60
2019-06-01T20:13:03.227Z,22.60
2019-06-01T20:15:34.568Z,22.50
2019-06-01T20:18:05.880Z,22.40
2019-06-01T20:20:37.666Z,22.40
2019-06-01T20:23:09.073Z,22.30
2019-06-01T20:25:40.807Z,22.30
2019-06-01T20:28:13.391Z,22.30
2019-06-01T20:30:45.219Z,22.30
2019-06-01T20:33:20.552Z,22.30
2019-06-01T20:35:52.046Z,22.20
2019-06-01T20:38:23.563Z,22.20
2019-06-01T20:40:54.833Z,22.10
2019-06-01T20:43:26.012Z,22.10
2019-06-01T20:45:57.601Z,21.90
2019-06-01T20:48:29.008Z,21.90
2019-06-01T20:51:00.410Z,22.00
2019-06-01T20:53:31.867Z,22.00
2019-06-01T20:56:03.220Z,21.90
2019-06-01T20:58:34.204Z,21.80
2019-06-01T21:01:05.504Z,21.80
2019-06-01T21:03:36.665Z,21.80
2019-06-01T21:06:08.389Z,21.80
2019-06-01T21:08:39.976Z,21.90
2019-06-01T21:11:11.442Z,21.80
2019-06-01T21:13:43.911Z,21.80
2019-06-01T21:16:16.034Z,21.90
2019-06-01T21:18:47.298Z,21.70
2019-06-01T21:21:18.356Z,21.80
2019-06-01T21:23:49.384Z,21.60
2019-06-01T21:26:21.069Z,21.50
2019-06-01T21:28:52.534Z,21.60
2019-06-01T21:31:30.125Z,21.60
2019-06-01T21:34:01.434Z,21.50
2019-06-01T21:36:32.575Z,21.30
2019-06-01T21:39:04.288Z,21.20
2019-06-01T21:41:37.107Z,21.10
2019-06-01T21:44:08.721Z,21.10
2019-06-01T21:46:40.138Z,21.10
2019-06-01T21:49:11.575Z,21.10
2019-06-01T21:51:43.091Z,21.20
2019-06-01T21:54:14.137Z,21.30
2019-06-01T21:56:48.021Z,21.20
2019-06-01T21:59:20.517Z,21.20
2019-06-01T22:01:52.210Z,21.00
2019-06-01T22:04:25.333Z,21.00
2019-06-01T22:06:56.786Z,21.10
2019-06-01T22:09:28.100Z,21.00
2019-06-01T22:12:02.786Z,21.00
2019-06-01T22:14:34.028Z,20.90
2019-06-01T22:17:05.301Z,21.10
2019-06-01T22:19:36.792Z,21.00
2019-06-01T22:22:08.280Z,21.10
2019-06-01T22:24:39.620Z,21.20
2019-06-01T22:27:11.022Z,21.10
2019-06-01T22:29:42.248Z,21.00
2019-06-01T22:32:13.892Z,20.80
2019-06-01T22:34:45.109Z,20.80
2019-06-01T22:37:16.203Z,20.80
2019-06-01T22:39:47.564Z,20.90
2019-06-01T22:42:19.803Z,20.80
2019-06-01T22:44:51.224Z,20.70
2019-06-01T22:47:22.543Z,20.70
2019-06-01T22:49:54.229Z,20.60
2019-06-01T22:52:25.505Z,20.50
2019-06-01T22:54:56.766Z,20.60
2019-06-01T22:57:28.505Z,20.60
2019-06-01T23:00:00.537Z,20.50
2019-06-01T23:02:32.045Z,20.40
2019-06-01T23:05:03.558Z,20.50
2019-06-01T23:07:34.667Z,20.60
2019-06-01T23:10:06.757Z,20.60
2019-06-01T23:12:38.028Z,20.50
2019-06-01T23:15:09.693Z,20.50
2019-06-01T23:17:40.999Z,20.50
2019-06-01T23:20:12.390Z,20.60
2019-06-01T23:22:43.597Z,20.80
2019-06-01T23:25:14.802Z,20.80
2019-06-01T23:27:45.976Z,20.70
2019-06-01T23:30:18.184Z,20.60
2019-06-01T23:32:49.715Z,20.50
2019-06-01T23:35:22.269Z,20.50
2019-06-01T23:37:53.434Z,20.50
2019-06-01T23:40:25.008Z,20.50
2019-06-01T23:42:56.246Z,20.40
2019-06-01T23:45:27.290Z,20.40
2019-06-01T23:47:58.572Z,20.50
2019-06-01T23:50:29.907Z,20.50
2019-06-01T23:53:13.101Z,20.60
2019-06-01T23:55:34.386Z,20.60
2019-06-01T23:58:06.834Z,20.50
